Time;durP1;ratioP1;P1;durP2;ratioP2;P2;SDS_P1;SDS_P2;PMS_P1;PMS_P2;Temp;Humidity;BMP_temperature;BMP_pressure;BME280_temperature;BME280_humidity;BME280_pressure;Samples;Min_cycle;Max_cycle;Signal;HPM_P1;HPM_P2
2021/03/10 00:02:30;;;;;;;65.03;36.08;;;6.00;99.90;;;;;;10573831;28;20081;-71
2021/03/10 00:07:38;;;;;;;64.70;35.58;;;6.00;99.90;;;;;;10573300;28;20135;-71
2021/03/10 00:12:42;;;;;;;63.38;34.85;;;5.90;99.90;;;;;;10573226;28;20108;-71
2021/03/10 00:17:45;;;;;;;78.25;38.00;;;5.90;99.90;;;;;;10554649;28;20438;-71
2021/03/10 00:22:48;;;;;;;76.82;38.80;;;5.90;99.90;;;;;;10572080;28;20247;-70
2021/03/10 00:27:50;;;;;;;68.40;35.92;;;5.80;99.90;;;;;;10572207;28;20052;-71
2021/03/10 00:32:53;;;;;;;60.45;34.65;;;5.80;99.90;;;;;;10573014;28;20112;-71
2021/03/10 00:38:03;;;;;;;52.17;32.15;;;5.80;99.90;;;;;;10572072;28;20134;-70
2021/03/10 00:43:05;;;;;;;100.43;46.17;;;5.70;99.90;;;;;;10572423;28;20047;-71
2021/03/10 00:48:08;;;;;;;73.13;39.25;;;5.70;99.90;;;;;;10571157;28;20043;-70
2021/03/10 00:53:12;;;;;;;62.22;35.67;;;5.70;99.90;;;;;;10553935;28;20043;-70
2021/03/10 00:58:14;;;;;;;65.10;37.13;;;5.80;99.90;;;;;;10571969;28;20055;-70
2021/03/10 01:03:17;;;;;;;52.80;33.33;;;5.80;99.90;;;;;;10553697;28;20241;-70
2021/03/10 01:08:22;;;;;;;49.47;32.08;;;5.70;99.90;;;;;;10571643;28;20579;-70
2021/03/10 01:13:25;;;;;;;45.53;33.05;;;5.90;99.90;;;;;;10570027;28;20127;-71
2021/03/10 01:18:31;;;;;;;39.88;29.17;;;5.90;99.90;;;;;;10570081;28;20048;-70
2021/03/10 01:23:33;;;;;;;49.60;32.30;;;6.10;99.90;;;;;;10570286;28;20402;-71
2021/03/10 01:28:36;;;;;;;42.70;30.65;;;6.00;99.90;;;;;;10570871;28;20055;-70
2021/03/10 01:33:39;;;;;;;50.53;32.22;;;6.10;99.90;;;;;;10552028;28;20048;-71
2021/03/10 01:38:45;;;;;;;57.15;32.88;;;6.20;99.90;;;;;;10570347;28;20062;-70
2021/03/10 01:43:48;;;;;;;44.53;30.15;;;6.20;99.90;;;;;;10570089;28;20085;-70
2021/03/10 01:48:51;;;;;;;48.72;31.13;;;6.20;99.90;;;;;;10570424;28;20044;-70
2021/03/10 01:53:54;;;;;;;48.65;31.50;;;6.00;99.90;;;;;;10569422;28;20048;-70
2021/03/10 01:58:57;;;;;;;49.03;33.53;;;6.10;99.90;;;;;;10569903;28;20063;-71
2021/03/10 02:04:07;;;;;;;42.90;29.27;;;6.00;99.90;;;;;;10569222;28;20051;-70
2021/03/10 02:09:37;;;;;;;43.40;30.92;;;6.20;99.90;;;;;;10570186;28;20055;-70
2021/03/10 02:14:51;;;;;;;34.42;26.58;;;6.20;99.90;;;;;;10465071;28;20048;-70
2021/03/10 02:20:07;;;;;;;35.05;26.42;;;6.30;99.90;;;;;;10485577;28;20387;-71
2021/03/10 02:25:14;;;;;;;33.88;27.08;;;6.40;99.90;;;;;;10485636;28;20389;-70
2021/03/10 02:30:40;;;;;;;34.17;25.73;;;6.50;99.90;;;;;;10485011;28;20099;-70
2021/03/10 02:35:51;;;;;;;27.05;22.17;;;6.60;99.90;;;;;;10485214;28;20045;-70
2021/03/10 02:40:55;;;;;;;33.53;25.67;;;6.60;99.90;;;;;;10484844;28;20094;-71
2021/03/10 02:46:02;;;;;;;38.30;27.95;;;6.60;99.90;;;;;;10491505;28;20302;-71
2021/03/10 02:51:05;;;;;;;42.70;29.83;;;6.60;99.90;;;;;;10492351;28;20049;-70
2021/03/10 02:56:12;;;;;;;39.38;27.85;;;6.50;99.90;;;;;;10492638;28;20048;-71
2021/03/10 03:01:15;;;;;;;33.60;25.88;;;6.50;99.90;;;;;;10493209;28;20056;-71
2021/03/10 03:06:20;;;;;;;42.72;29.83;;;6.40;99.90;;;;;;10500165;28;20041;-70
2021/03/10 03:11:23;;;;;;;41.35;29.63;;;6.40;99.90;;;;;;10509593;28;20491;-70
2021/03/10 03:16:28;;;;;;;41.67;29.10;;;6.40;99.90;;;;;;10582937;28;20085;-70
2021/03/10 03:21:33;;;;;;;46.95;30.40;;;6.40;99.90;;;;;;10583593;28;20047;-71
2021/03/10 03:26:36;;;;;;;43.00;30.30;;;6.30;99.90;;;;;;10583663;28;20048;-70
2021/03/10 03:31:40;;;;;;;42.72;29.58;;;6.30;99.90;;;;;;10582779;28;20388;-71
2021/03/10 03:36:43;;;;;;;32.58;24.77;;;6.40;99.90;;;;;;10560949;28;20105;-71
2021/03/10 03:41:47;;;;;;;40.45;28.95;;;6.30;99.90;;;;;;10583280;28;20097;-71
2021/03/10 03:46:50;;;;;;;46.95;30.88;;;6.10;99.90;;;;;;10582227;28;20047;-71
2021/03/10 03:51:52;;;;;;;43.35;30.63;;;6.00;99.90;;;;;;10564936;28;20059;-70
2021/03/10 03:56:55;;;;;;;35.53;26.85;;;6.00;99.90;;;;;;10582440;28;20052;-70
2021/03/10 04:01:57;;;;;;;40.30;29.13;;;6.00;99.90;;;;;;10580634;28;20154;-71
2021/03/10 04:07:01;;;;;;;42.85;28.65;;;6.10;99.90;;;;;;10576055;28;20403;-71
2021/03/10 04:12:04;;;;;;;39.25;28.20;;;6.10;99.90;;;;;;10548695;28;20055;-71
2021/03/10 04:17:06;;;;;;;43.35;28.90;;;6.20;99.90;;;;;;10574399;28;20055;-71
2021/03/10 04:22:09;;;;;;;48.25;30.13;;;6.20;99.90;;;;;;10574255;28;20056;-71
2021/03/10 04:27:15;;;;;;;44.13;29.42;;;6.20;99.90;;;;;;10573750;28;20047;-70
2021/03/10 04:32:17;;;;;;;46.63;30.13;;;6.20;99.90;;;;;;10573573;28;20051;-71
2021/03/10 04:37:20;;;;;;;42.03;28.27;;;6.20;99.90;;;;;;10573175;28;20134;-70
2021/03/10 04:42:23;;;;;;;45.13;29.75;;;6.20;99.90;;;;;;10574569;28;20092;-71
2021/03/10 04:47:26;;;;;;;38.83;28.05;;;6.20;99.90;;;;;;10555381;28;20120;-71
2021/03/10 04:52:28;;;;;;;45.72;30.10;;;6.10;99.90;;;;;;10572729;28;20507;-70
2021/03/10 04:57:32;;;;;;;50.00;32.17;;;6.10;99.90;;;;;;10573059;28;20039;-70
2021/03/10 05:02:35;;;;;;;46.33;30.67;;;6.20;99.90;;;;;;10572471;28;20043;-71
2021/03/10 05:07:39;;;;;;;49.88;31.75;;;6.20;99.90;;;;;;10571987;28;20048;-70
2021/03/10 05:12:42;;;;;;;57.80;38.38;;;6.20;99.90;;;;;;10571574;28;20116;-71
2021/03/10 05:17:45;;;;;;;46.80;33.08;;;6.20;99.90;;;;;;10572378;28;20048;-70
2021/03/10 05:22:47;;;;;;;45.40;30.80;;;6.10;99.90;;;;;;10571263;28;20122;-70
2021/03/10 05:27:50;;;;;;;43.00;30.40;;;6.10;99.90;;;;;;10553653;28;20048;-71
2021/03/10 05:32:53;;;;;;;42.30;30.50;;;6.00;99.90;;;;;;10571854;28;20040;-70
2021/03/10 05:37:55;;;;;;;46.58;31.48;;;6.00;99.90;;;;;;10571339;28;20052;-71
2021/03/10 05:42:58;;;;;;;48.05;30.65;;;6.00;99.90;;;;;;10570690;28;20047;-70
2021/03/10 05:48:01;;;;;;;51.67;31.63;;;5.90;99.90;;;;;;10552955;28;20055;-70
2021/03/10 05:53:08;;;;;;;51.50;34.53;;;5.90;99.90;;;;;;10571049;28;20051;-70
2021/03/10 05:58:12;;;;;;;57.08;33.55;;;5.90;99.90;;;;;;10570959;28;20484;-70
2021/03/10 06:03:16;;;;;;;42.85;28.83;;;5.90;99.90;;;;;;10570337;28;20059;-71
2021/03/10 06:08:27;;;;;;;48.22;30.27;;;6.00;99.90;;;;;;10570804;28;20058;-71
2021/03/10 06:13:32;;;;;;;52.55;32.28;;;6.00;99.90;;;;;;10552004;28;20066;-70
2021/03/10 06:18:35;;;;;;;61.75;36.60;;;6.00;99.90;;;;;;10573534;28;20097;-71
2021/03/10 06:24:04;;;;;;;46.75;31.92;;;6.00;99.90;;;;;;10579194;28;20044;-71
2021/03/10 06:29:15;;;;;;;56.58;32.97;;;5.90;99.90;;;;;;10578949;28;20055;-70
2021/03/10 06:34:16;;;;;;;50.00;32.00;;;5.90;99.90;;;;;;10561327;28;20070;-70
2021/03/10 06:39:26;;;;;;;44.00;29.80;;;6.00;99.90;;;;;;10577613;28;20404;-71
2021/03/10 06:44:29;;;;;;;47.83;31.77;;;6.10;99.90;;;;;;10578414;28;20047;-71
2021/03/10 06:49:32;;;;;;;40.33;28.77;;;6.00;99.90;;;;;;10578169;28;20445;-70
2021/03/10 06:54:34;;;;;;;44.08;30.20;;;6.10;99.90;;;;;;10576510;28;20090;-70
2021/03/10 06:59:50;;;;;;;47.25;29.70;;;6.40;99.90;;;;;;10570893;28;20059;-70
2021/03/10 07:04:57;;;;;;;45.92;29.52;;;6.40;99.90;;;;;;10568626;28;20430;-70
2021/03/10 07:09:58;;;;;;;38.67;27.52;;;6.60;99.90;;;;;;10557916;28;20051;-70
2021/03/10 07:15:04;;;;;;;34.60;25.98;;;6.80;99.90;;;;;;10571661;28;20074;-70
2021/03/10 07:20:07;;;;;;;32.33;25.45;;;6.90;99.90;;;;;;10572538;28;20055;-71
2021/03/10 07:25:20;;;;;;;32.22;24.65;;;6.70;99.90;;;;;;10567833;28;20495;-71
2021/03/10 07:30:40;;;;;;;31.02;25.00;;;6.60;99.90;;;;;;10567869;28;20051;-70
2021/03/10 07:35:51;;;;;;;29.92;23.88;;;6.80;99.90;;;;;;10568738;28;20051;-70
2021/03/10 07:41:10;;;;;;;32.65;23.20;;;7.20;99.90;;;;;;10566377;28;20441;-71
2021/03/10 07:46:39;;;;;;;27.08;21.38;;;7.50;99.90;;;;;;10567624;28;20043;-70
2021/03/10 07:51:40;;;;;;;28.08;22.13;;;7.80;99.90;;;;;;10565371;28;20043;-71
2021/03/10 07:56:42;;;;;;;28.23;22.58;;;8.10;99.90;;;;;;10564617;28;20122;-71
2021/03/10 08:01:44;;;;;;;28.27;22.63;;;8.10;99.90;;;;;;10565312;28;20044;-71
2021/03/10 08:06:52;;;;;;;29.73;21.27;;;8.30;99.90;;;;;;10569248;28;20503;-69
2021/03/10 08:12:06;;;;;;;25.98;20.80;;;8.60;99.90;;;;;;10544221;28;698147;-69
2021/03/10 08:17:08;;;;;;;26.27;21.42;;;8.80;99.90;;;;;;10571236;27;20052;-68
2021/03/10 08:22:15;;;;;;;25.63;20.25;;;8.90;99.90;;;;;;10552782;27;20039;-68
2021/03/10 08:27:48;;;;;;;25.85;20.90;;;9.10;99.90;;;;;;10570820;27;20044;-68
2021/03/10 08:32:50;;;;;;;22.85;19.70;;;9.40;99.90;;;;;;10551204;28;20052;-69
2021/03/10 08:38:01;;;;;;;26.85;20.27;;;9.70;99.90;;;;;;10569571;28;20059;-68
2021/03/10 08:43:03;;;;;;;28.50;21.20;;;9.70;99.90;;;;;;10568636;28;20048;-68
2021/03/10 08:48:05;;;;;;;26.65;21.35;;;9.70;99.90;;;;;;10570284;28;20467;-68
2021/03/10 08:53:11;;;;;;;26.75;20.83;;;9.70;99.90;;;;;;10573325;28;20134;-68
2021/03/10 08:58:16;;;;;;;25.58;20.95;;;9.90;99.90;;;;;;10574921;27;20667;-68
2021/03/10 09:08:34;;;;;;;26.05;20.55;;;10.10;99.90;;;;;;10447173;22;20060;-71
2021/03/10 09:13:36;;;;;;;25.45;20.75;;;10.30;99.90;;;;;;10393868;28;20092;-70
2021/03/10 09:18:38;;;;;;;28.73;22.40;;;10.30;99.90;;;;;;10370536;28;20099;-70
2021/03/10 09:23:40;;;;;;;27.05;21.98;;;10.20;99.90;;;;;;10355812;28;20553;-71
2021/03/10 09:28:41;;;;;;;27.25;21.30;;;10.00;99.90;;;;;;10365154;28;20127;-70
2021/03/10 09:33:43;;;;;;;27.63;21.98;;;10.20;99.90;;;;;;10365307;28;20045;-71
2021/03/10 09:38:51;;;;;;;25.35;21.17;;;10.70;99.90;;;;;;10371986;28;20581;-70
2021/03/10 09:44:08;;;;;;;29.00;21.92;;;10.70;99.90;;;;;;10405499;28;20459;-70
2021/03/10 09:49:11;;;;;;;29.88;22.83;;;10.70;99.90;;;;;;10405500;28;20401;-71
2021/03/10 09:54:13;;;;;;;25.05;21.38;;;10.80;99.90;;;;;;10404939;28;20073;-71
2021/03/10 09:59:14;;;;;;;26.35;21.60;;;11.10;99.90;;;;;;10405574;28;20057;-71
2021/03/10 10:04:15;;;;;;;28.15;22.98;;;11.30;99.90;;;;;;10403229;28;20132;-70
2021/03/10 10:09:17;;;;;;;27.33;23.23;;;11.30;99.90;;;;;;10404175;28;20496;-70
2021/03/10 10:14:19;;;;;;;26.73;21.85;;;11.30;99.90;;;;;;10384354;28;20080;-71
2021/03/10 10:19:20;;;;;;;29.80;23.30;;;11.60;99.90;;;;;;10363606;28;20484;-70
2021/03/10 10:24:21;;;;;;;29.42;24.08;;;11.60;99.90;;;;;;10363386;28;20449;-70
2021/03/10 10:29:23;;;;;;;33.28;25.42;;;11.40;99.90;;;;;;10363148;28;20119;-70
2021/03/10 10:34:24;;;;;;;31.00;24.73;;;11.50;99.90;;;;;;10363595;28;20229;-71
2021/03/10 10:39:26;;;;;;;29.15;23.80;;;11.50;99.90;;;;;;10362947;28;20513;-70
2021/03/10 10:44:27;;;;;;;31.45;26.30;;;11.50;99.90;;;;;;10363069;28;20077;-71
2021/03/10 10:49:29;;;;;;;32.83;25.10;;;11.10;99.90;;;;;;10345508;28;20524;-70
2021/03/10 10:54:30;;;;;;;33.17;25.80;;;11.20;99.90;;;;;;10361979;28;20126;-71
2021/03/10 10:59:33;;;;;;;30.73;26.23;;;11.10;99.90;;;;;;10367901;28;20061;-70
2021/03/10 11:04:35;;;;;;;31.20;26.30;;;11.30;99.90;;;;;;10375944;28;20048;-71
2021/03/10 11:09:42;;;;;;;30.23;25.45;;;11.60;99.90;;;;;;10377508;28;20412;-71
2021/03/10 11:14:43;;;;;;;30.42;25.92;;;11.50;99.90;;;;;;10393403;28;20493;-71
2021/03/10 11:19:45;;;;;;;32.45;26.52;;;11.70;99.90;;;;;;10410444;28;20061;-71
2021/03/10 11:24:47;;;;;;;32.97;26.45;;;11.50;99.90;;;;;;10410571;28;20045;-71
2021/03/10 11:29:49;;;;;;;34.75;28.30;;;11.40;99.90;;;;;;10392618;28;20084;-70
2021/03/10 11:34:51;;;;;;;33.28;26.85;;;11.50;99.90;;;;;;10410725;28;20088;-70
2021/03/10 11:39:54;;;;;;;34.42;26.88;;;11.50;99.90;;;;;;10408410;28;20061;-70
2021/03/10 11:44:55;;;;;;;34.55;28.67;;;11.60;99.90;;;;;;10409522;28;20051;-71
2021/03/10 11:49:57;;;;;;;32.65;27.38;;;11.50;99.90;;;;;;10409479;28;20452;-71
2021/03/10 11:54:59;;;;;;;34.05;27.63;;;11.40;99.90;;;;;;10407488;28;20080;-71
2021/03/10 12:00:00;;;;;;;33.05;27.25;;;11.40;99.90;;;;;;10409216;28;20067;-71
2021/03/10 12:05:02;;;;;;;35.45;28.33;;;11.60;99.90;;;;;;10408565;28;20065;-71
2021/03/10 12:10:04;;;;;;;34.38;27.40;;;11.80;99.90;;;;;;10409270;28;20049;-71
2021/03/10 12:15:08;;;;;;;32.42;27.90;;;11.40;99.90;;;;;;10381967;28;20038;-71
2021/03/10 12:20:10;;;;;;;35.13;27.38;;;11.60;99.90;;;;;;10334526;28;20053;-71
2021/03/10 12:25:11;;;;;;;35.03;27.88;;;11.80;99.90;;;;;;10367128;28;20123;-71
2021/03/10 12:30:14;;;;;;;35.03;28.02;;;11.80;99.90;;;;;;10367884;28;20073;-71
2021/03/10 12:35:16;;;;;;;33.70;27.65;;;11.80;99.90;;;;;;10366106;28;20132;-71
2021/03/10 12:40:19;;;;;;;32.47;27.92;;;11.80;99.90;;;;;;10366913;28;20141;-71
2021/03/10 12:45:20;;;;;;;35.95;27.77;;;12.10;99.90;;;;;;10366134;28;20512;-71
2021/03/10 12:50:22;;;;;;;31.25;26.92;;;12.10;99.90;;;;;;10365707;28;20458;-71
2021/03/10 12:55:23;;;;;;;32.70;27.35;;;12.40;99.90;;;;;;10365867;28;20053;-70
2021/03/10 13:00:26;;;;;;;30.67;26.52;;;12.70;99.90;;;;;;10366651;28;20081;-71
2021/03/10 13:05:27;;;;;;;30.83;26.20;;;12.90;99.90;;;;;;10365473;28;20058;-70
2021/03/10 13:10:29;;;;;;;30.08;25.55;;;13.00;99.90;;;;;;10366111;28;20054;-71
2021/03/10 13:15:44;;;;;;;29.95;25.33;;;12.90;99.90;;;;;;10396140;28;20591;-71
2021/03/10 13:20:46;;;;;;;32.30;26.10;;;13.00;98.10;;;;;;10405580;28;20088;-71
2021/03/10 13:25:47;;;;;;;34.42;27.63;;;13.20;98.50;;;;;;10406271;28;20088;-71
2021/03/10 13:30:48;;;;;;;28.13;24.17;;;13.50;97.00;;;;;;10405802;28;20081;-71
2021/03/10 13:35:51;;;;;;;25.92;23.13;;;13.50;94.60;;;;;;10405393;28;20390;-71
2021/03/10 13:40:54;;;;;;;29.75;23.95;;;13.70;93.50;;;;;;10404920;28;20072;-71
2021/03/10 13:45:55;;;;;;;28.60;23.83;;;13.60;91.30;;;;;;10405677;28;20477;-71
2021/03/10 13:50:57;;;;;;;29.25;24.08;;;13.50;92.70;;;;;;10404966;28;20057;-71
2021/03/10 13:55:59;;;;;;;26.90;22.58;;;13.50;91.30;;;;;;10405297;28;20391;-71
2021/03/10 14:01:00;;;;;;;28.20;22.90;;;13.50;91.10;;;;;;10405178;28;20575;-71
2021/03/10 14:06:02;;;;;;;28.52;22.38;;;13.50;91.00;;;;;;10404783;28;20054;-71
2021/03/10 14:11:03;;;;;;;25.20;21.83;;;13.60;90.20;;;;;;10404751;28;20132;-71
2021/03/10 14:16:05;;;;;;;23.98;20.23;;;13.70;88.10;;;;;;10371377;28;20050;-71
2021/03/10 14:21:07;;;;;;;24.90;21.10;;;13.70;85.70;;;;;;10363612;28;20054;-71
2021/03/10 14:26:09;;;;;;;25.13;20.92;;;13.70;83.20;;;;;;10363894;28;20054;-71
2021/03/10 14:31:12;;;;;;;26.45;20.83;;;13.60;84.80;;;;;;10361670;28;20081;-71
2021/03/10 14:36:14;;;;;;;25.15;21.13;;;13.60;84.30;;;;;;10346572;28;20050;-71
2021/03/10 14:41:16;;;;;;;25.10;19.50;;;13.90;83.90;;;;;;10368520;28;20046;-71
2021/03/10 14:46:18;;;;;;;26.02;20.27;;;13.70;82.20;;;;;;10370862;28;20065;-71
2021/03/10 14:51:21;;;;;;;21.52;17.63;;;13.80;83.50;;;;;;10370313;28;20052;-71
2021/03/10 14:56:22;;;;;;;23.38;18.20;;;13.50;80.90;;;;;;10371302;28;20433;-71
2021/03/10 15:01:24;;;;;;;24.17;18.77;;;13.30;80.80;;;;;;10370614;28;20053;-71
2021/03/10 15:06:25;;;;;;;24.08;18.40;;;13.10;82.70;;;;;;10370132;28;20054;-70
2021/03/10 15:11:27;;;;;;;21.85;18.25;;;12.90;83.20;;;;;;10370089;28;20140;-70
2021/03/10 15:16:28;;;;;;;23.48;17.98;;;12.80;83.70;;;;;;10406982;28;20087;-70
2021/03/10 15:21:30;;;;;;;22.88;17.85;;;12.70;85.00;;;;;;10407670;28;20057;-70
2021/03/10 15:26:31;;;;;;;24.33;17.25;;;12.60;85.40;;;;;;10410760;28;20093;-70
2021/03/10 15:31:33;;;;;;;23.40;17.23;;;12.40;86.20;;;;;;10409975;28;20140;-70
2021/03/10 15:36:36;;;;;;;24.73;17.85;;;12.20;87.70;;;;;;10410050;28;20386;-69
2021/03/10 15:41:39;;;;;;;20.42;15.98;;;12.10;87.30;;;;;;10409685;28;20049;-70
2021/03/10 15:46:40;;;;;;;19.25;14.75;;;12.10;86.60;;;;;;10409460;28;20049;-69
2021/03/10 15:51:42;;;;;;;19.40;15.38;;;12.00;85.70;;;;;;10409453;28;20629;-70
2021/03/10 15:56:44;;;;;;;23.05;15.13;;;12.10;86.70;;;;;;10409687;28;20128;-70
2021/03/10 16:01:45;;;;;;;20.92;15.70;;;12.00;87.10;;;;;;10408937;28;20049;-70
2021/03/10 16:06:47;;;;;;;20.88;15.48;;;12.00;86.10;;;;;;10408649;28;20107;-70
2021/03/10 16:11:48;;;;;;;21.88;15.18;;;11.90;85.90;;;;;;10408557;28;20133;-69
2021/03/10 16:16:50;;;;;;;22.02;16.20;;;12.10;87.30;;;;;;10368861;28;20108;-69
2021/03/10 16:21:53;;;;;;;21.40;16.35;;;12.00;86.50;;;;;;10350329;28;20058;-69
2021/03/10 16:26:55;;;;;;;24.02;16.23;;;11.90;85.80;;;;;;10367276;28;20513;-69
2021/03/10 16:31:56;;;;;;;22.75;16.95;;;11.70;85.90;;;;;;10367099;28;20081;-70
2021/03/10 16:36:58;;;;;;;22.80;16.95;;;11.70;86.80;;;;;;10366818;28;20382;-69
2021/03/10 16:41:59;;;;;;;23.27;16.35;;;11.70;85.90;;;;;;10366711;28;20080;-69
2021/03/10 16:47:04;;;;;;;27.58;20.35;;;11.50;87.00;;;;;;10366378;28;20046;-69
2021/03/10 16:52:06;;;;;;;28.55;21.33;;;11.40;87.80;;;;;;10366424;28;20409;-69
2021/03/10 16:57:09;;;;;;;26.67;18.90;;;11.30;88.40;;;;;;10365999;28;20056;-69
2021/03/10 17:02:27;;;;;;;21.67;17.13;;;11.30;89.80;;;;;;10365525;28;20508;-69
2021/03/10 17:07:35;;;;;;;23.20;17.42;;;11.20;89.90;;;;;;10365803;28;20136;-69
2021/03/10 17:12:38;;;;;;;28.27;18.67;;;11.20;90.10;;;;;;10369719;28;20051;-69
2021/03/10 17:17:40;;;;;;;24.50;17.52;;;11.10;90.60;;;;;;10406555;28;20139;-69
2021/03/10 17:22:42;;;;;;;31.30;18.65;;;11.00;90.50;;;;;;10406387;28;20056;-69
2021/03/10 17:27:43;;;;;;;24.88;17.73;;;10.90;91.00;;;;;;10401204;28;20111;-69
2021/03/10 17:32:45;;;;;;;20.27;16.00;;;10.90;91.30;;;;;;10399144;28;20136;-69
2021/03/10 17:37:47;;;;;;;20.90;16.00;;;10.80;91.00;;;;;;10385557;28;20055;-69
2021/03/10 17:42:50;;;;;;;19.88;16.25;;;10.80;91.30;;;;;;10403758;28;20045;-69
2021/03/10 17:47:52;;;;;;;22.67;15.27;;;10.70;91.40;;;;;;10403712;28;20073;-69
2021/03/10 17:52:53;;;;;;;18.73;15.50;;;10.70;91.60;;;;;;10399384;28;20056;-68
2021/03/10 17:58:02;;;;;;;21.27;15.57;;;10.70;91.40;;;;;;10402295;28;20057;-69
2021/03/10 18:03:04;;;;;;;22.40;16.40;;;10.70;91.50;;;;;;10403079;28;20045;-69
2021/03/10 18:08:06;;;;;;;20.30;16.65;;;10.60;91.60;;;;;;10402304;28;20521;-69
2021/03/10 18:13:07;;;;;;;21.30;15.80;;;10.70;91.20;;;;;;10406227;28;20053;-69
2021/03/10 18:18:09;;;;;;;23.20;16.95;;;10.60;91.60;;;;;;10411220;28;20485;-69
2021/03/10 18:23:11;;;;;;;27.02;18.00;;;10.60;91.50;;;;;;10411551;28;20061;-69
2021/03/10 18:28:12;;;;;;;23.77;15.55;;;10.60;91.90;;;;;;10413073;28;20064;-69
2021/03/10 18:33:14;;;;;;;23.70;16.42;;;10.60;91.70;;;;;;10410736;28;20479;-69
2021/03/10 18:38:16;;;;;;;22.90;17.58;;;10.70;91.90;;;;;;10411972;28;20056;-69
2021/03/10 18:43:18;;;;;;;19.65;15.88;;;10.70;91.80;;;;;;10411491;28;20053;-70
2021/03/10 18:48:20;;;;;;;25.13;18.42;;;10.70;92.00;;;;;;10412458;28;20073;-69
2021/03/10 18:53:22;;;;;;;19.92;15.90;;;10.70;91.50;;;;;;10394087;28;20049;-69
2021/03/10 18:58:24;;;;;;;24.98;18.17;;;10.60;91.90;;;;;;10411825;28;20077;-69
2021/03/10 19:03:26;;;;;;;22.67;16.00;;;10.50;92.10;;;;;;10411425;28;20068;-70
2021/03/10 19:08:27;;;;;;;24.63;16.92;;;10.50;92.50;;;;;;10411180;28;20049;-69
2021/03/10 19:13:29;;;;;;;23.40;16.52;;;10.40;92.50;;;;;;10380716;28;20050;-69
2021/03/10 19:18:32;;;;;;;25.25;15.65;;;10.40;92.70;;;;;;10370307;28;20153;-69
2021/03/10 19:23:34;;;;;;;24.15;17.73;;;10.30;92.20;;;;;;10368150;28;20081;-69
2021/03/10 19:28:37;;;;;;;22.13;16.30;;;10.30;92.70;;;;;;10369640;28;20054;-69
2021/03/10 19:33:38;;;;;;;24.55;16.90;;;10.30;92.70;;;;;;10368406;28;20133;-70
2021/03/10 19:38:40;;;;;;;22.70;15.95;;;10.30;92.70;;;;;;10369648;28;20512;-69
2021/03/10 19:43:42;;;;;;;20.98;14.85;;;10.40;92.40;;;;;;10368577;28;20430;-70
2021/03/10 19:48:43;;;;;;;19.98;15.65;;;10.30;92.40;;;;;;10368988;28;20413;-69
2021/03/10 19:53:45;;;;;;;21.30;15.88;;;10.40;92.30;;;;;;10368763;28;20088;-69
2021/03/10 19:58:48;;;;;;;22.23;15.00;;;10.30;92.40;;;;;;10350889;28;20054;-69
2021/03/10 20:03:50;;;;;;;20.75;15.75;;;10.30;92.10;;;;;;10351449;28;20064;-69
2021/03/10 20:08:52;;;;;;;21.25;15.45;;;10.30;92.40;;;;;;10351438;28;20053;-69
2021/03/10 20:13:54;;;;;;;20.73;14.90;;;10.30;92.00;;;;;;10383489;28;20077;-69
2021/03/10 20:18:56;;;;;;;22.55;15.27;;;10.20;92.50;;;;;;10409172;28;20132;-69
2021/03/10 20:23:58;;;;;;;21.15;16.02;;;10.20;91.90;;;;;;10408039;28;20049;-70
2021/03/10 20:28:59;;;;;;;20.60;15.50;;;10.20;91.90;;;;;;10408676;28;20124;-69
2021/03/10 20:34:01;;;;;;;22.02;15.30;;;10.20;92.40;;;;;;10366196;28;20425;-70
2021/03/10 20:39:06;;;;;;;19.42;14.48;;;10.20;91.40;;;;;;10366260;28;20088;-69
2021/03/10 20:44:07;;;;;;;21.67;15.25;;;10.10;91.90;;;;;;10348937;28;20073;-69
2021/03/10 20:49:10;;;;;;;19.23;14.57;;;10.20;91.50;;;;;;10365275;28;20402;-69
2021/03/10 20:54:14;;;;;;;24.85;15.45;;;10.20;91.40;;;;;;10364852;28;20556;-70
2021/03/10 20:59:19;;;;;;;23.20;16.40;;;10.20;90.30;;;;;;10349485;28;20093;-69
2021/03/10 21:04:20;;;;;;;18.58;13.77;;;10.20;91.40;;;;;;10366045;28;20046;-70
2021/03/10 21:09:22;;;;;;;19.25;14.38;;;10.30;90.70;;;;;;10365353;28;20130;-69
2021/03/10 21:14:24;;;;;;;19.67;13.73;;;10.30;91.40;;;;;;10385703;28;20089;-70
2021/03/10 21:19:26;;;;;;;25.67;13.45;;;10.20;91.70;;;;;;10406317;28;20081;-69
2021/03/10 21:24:27;;;;;;;18.98;13.10;;;10.10;92.40;;;;;;10405694;28;20053;-69
2021/03/10 21:29:29;;;;;;;18.70;13.45;;;10.10;92.30;;;;;;10405917;28;20100;-69
2021/03/10 21:34:31;;;;;;;18.73;13.27;;;10.10;92.00;;;;;;10406081;28;20065;-69
2021/03/10 21:39:33;;;;;;;19.17;13.90;;;10.20;91.60;;;;;;10404995;28;20452;-70
2021/03/10 21:44:34;;;;;;;18.80;14.30;;;10.20;91.80;;;;;;10404610;28;20083;-69
2021/03/10 21:49:36;;;;;;;21.08;14.52;;;10.20;91.30;;;;;;10405462;28;20084;-70
2021/03/10 21:54:37;;;;;;;20.02;14.73;;;10.20;91.90;;;;;;10367060;28;20050;-69
2021/03/10 21:59:39;;;;;;;23.60;15.10;;;10.10;93.20;;;;;;10376294;28;20077;-69
2021/03/10 22:04:43;;;;;;;20.63;14.35;;;10.10;94.40;;;;;;10378004;28;20087;-70
2021/03/10 22:09:45;;;;;;;20.23;15.10;;;10.00;95.60;;;;;;10363946;28;20049;-70
2021/03/10 22:14:48;;;;;;;21.40;15.20;;;10.00;98.10;;;;;;10387453;28;20603;-69
2021/03/10 22:19:51;;;;;;;20.83;15.32;;;9.80;99.90;;;;;;10404797;28;20493;-69
2021/03/10 22:24:52;;;;;;;20.27;15.80;;;9.70;99.90;;;;;;10405079;28;20595;-69
2021/03/10 22:29:54;;;;;;;22.88;16.58;;;9.50;99.90;;;;;;10401988;28;20054;-62
2021/03/10 22:34:55;;;;;;;21.67;16.38;;;9.50;99.90;;;;;;10392930;28;20073;-62
2021/03/10 22:39:57;;;;;;;24.25;16.95;;;9.30;99.90;;;;;;10382479;28;20128;-62
2021/03/10 22:44:58;;;;;;;24.42;17.38;;;9.20;99.90;;;;;;10402188;28;20133;-62
2021/03/10 22:49:59;;;;;;;25.33;18.05;;;9.20;99.90;;;;;;10383123;28;20133;-62
2021/03/10 22:55:01;;;;;;;27.08;19.25;;;9.00;99.90;;;;;;10386499;28;20049;-63
2021/03/10 23:00:26;;;;;;;26.13;18.33;;;9.00;99.90;;;;;;10405387;28;20061;-62
2021/03/10 23:05:31;;;;;;;28.17;19.92;;;9.10;99.90;;;;;;10383266;28;20137;-63
2021/03/10 23:10:33;;;;;;;33.67;23.23;;;9.10;99.90;;;;;;10354881;28;20049;-63
2021/03/10 23:15:35;;;;;;;25.67;18.77;;;9.00;99.90;;;;;;10386177;28;20053;-63
2021/03/10 23:20:38;;;;;;;26.95;19.52;;;8.80;99.90;;;;;;10391388;28;20049;-63
2021/03/10 23:25:43;;;;;;;28.35;20.38;;;8.80;99.90;;;;;;10388352;28;20504;-63
2021/03/10 23:30:47;;;;;;;26.90;19.45;;;8.90;99.90;;;;;;10361829;28;20061;-62
2021/03/10 23:35:48;;;;;;;26.13;19.73;;;8.80;99.90;;;;;;10390650;28;20465;-62
2021/03/10 23:40:50;;;;;;;26.27;19.52;;;8.70;99.90;;;;;;10383026;28;20053;-62
2021/03/10 23:45:51;;;;;;;27.80;19.50;;;8.70;99.90;;;;;;10381368;28;20041;-63
2021/03/10 23:50:54;;;;;;;26.08;18.73;;;8.70;99.90;;;;;;10382665;28;20092;-63
2021/03/10 23:55:56;;;;;;;24.63;18.45;;;8.70;99.90;;;;;;10383368;28;20108;-62
